sensor_id;sensor_type;location;lat;lon;timestamp;P1;P2;P0
53698;PMS7003;68408;53.952;27.612;2023-05-02T00:01:42;13.3;11.2;8.4
53698;PMS7003;68408;53.952;27.612;2023-05-02T00:06:48;12.5;10.5;7.8
53698;PMS7003;68408;53.952;27.612;2023-05-02T00:11:34;11.2;9.5;7.4
53698;PMS7003;68408;53.952;27.612;2023-05-02T00:16:56;12.1;10;7.9
53698;PMS7003;68408;53.952;27.612;2023-05-02T00:21:42;10.9;9.2;7.1
53698;PMS7003;68408;53.952;27.612;2023-05-02T00:26:20;12.6;9.9;7.5
53698;PMS7003;68408;53.952;27.612;2023-05-02T00:31:10;11.8;10.1;8
53698;PMS7003;68408;53.952;27.612;2023-05-02T00:36:46;10.6;8.8;7
53698;PMS7003;68408;53.952;27.612;2023-05-02T00:41:26;10.1;8.4;6.9
53698;PMS7003;68408;53.952;27.612;2023-05-02T00:46:44;9.1;7.6;5.9
53698;PMS7003;68408;53.952;27.612;2023-05-02T00:51:44;9.9;7.7;6.1
53698;PMS7003;68408;53.952;27.612;2023-05-02T00:56:32;8.6;6.2;4.8
53698;PMS7003;68408;53.952;27.612;2023-05-02T01:01:43;9.5;7.7;6.1
53698;PMS7003;68408;53.952;27.612;2023-05-02T01:06:38;8.8;7.2;5.7
53698;PMS7003;68408;53.952;27.612;2023-05-02T01:11:19;8.7;6.5;5.5
53698;PMS7003;68408;53.952;27.612;2023-05-02T01:16:48;7.6;5.4;4.4
53698;PMS7003;68408;53.952;27.612;2023-05-02T01:21:56;8.2;7.1;5.4
53698;PMS7003;68408;53.952;27.612;2023-05-02T01:26:14;8.1;6.1;5.1
53698;PMS7003;68408;53.952;27.612;2023-05-02T01:31:43;6.2;4.7;3.8
53698;PMS7003;68408;53.952;27.612;2023-05-02T01:36:49;7.5;5.5;4.3
53698;PMS7003;68408;53.952;27.612;2023-05-02T01:41:47;6.2;5.2;3.9
53698;PMS7003;68408;53.952;27.612;2023-05-02T01:46:56;7.7;5.7;4.4
53698;PMS7003;68408;53.952;27.612;2023-05-02T01:51:45;7.7;5.3;4.3
53698;PMS7003;68408;53.952;27.612;2023-05-02T01:56:58;7.5;5.8;4.5
53698;PMS7003;68408;53.952;27.612;2023-05-02T02:01:54;7.5;5.4;4.5
53698;PMS7003;68408;53.952;27.612;2023-05-02T02:06:20;6.5;5.6;4.3
53698;PMS7003;68408;53.952;27.612;2023-05-02T02:11:56;7.8;5.8;4.9
53698;PMS7003;68408;53.952;27.612;2023-05-02T02:16:36;7.2;5.8;4.4
53698;PMS7003;68408;53.952;27.612;2023-05-02T02:21:22;7.3;6.5;5.2
53698;PMS7003;68408;53.952;27.612;2023-05-02T02:26:28;9.7;7.6;5.9
53698;PMS7003;68408;53.952;27.612;2023-05-02T02:31:56;15.1;12.1;8.8
53698;PMS7003;68408;53.952;27.612;2023-05-02T02:36:38;20.2;16.7;11.9
53698;PMS7003;68408;53.952;27.612;2023-05-02T02:41:59;21.2;17.5;12.4
53698;PMS7003;68408;53.952;27.612;2023-05-02T02:46:59;15.9;12.1;8.9
53698;PMS7003;68408;53.952;27.612;2023-05-02T02:51:10;17.2;13.3;9.6
53698;PMS7003;68408;53.952;27.612;2023-05-02T02:56:11;13.5;10.5;7.5
53698;PMS7003;68408;53.952;27.612;2023-05-02T03:01:45;9.7;7.8;6.2
53698;PMS7003;68408;53.952;27.612;2023-05-02T03:06:40;8;6.5;5
53698;PMS7003;68408;53.952;27.612;2023-05-02T03:11:20;7.7;6.8;5.5
53698;PMS7003;68408;53.952;27.612;2023-05-02T03:16:36;8;6.1;4.6
53698;PMS7003;68408;53.952;27.612;2023-05-02T03:21:58;6.7;5.9;4.7
53698;PMS7003;68408;53.952;27.612;2023-05-02T03:26:42;6.1;4.9;4
53698;PMS7003;68408;53.952;27.612;2023-05-02T03:31:36;6.4;4.9;3.8
53698;PMS7003;68408;53.952;27.612;2023-05-02T03:36:28;4.8;3.9;3.2
53698;PMS7003;68408;53.952;27.612;2023-05-02T03:41:56;6.6;5;3.8
53698;PMS7003;68408;53.952;27.612;2023-05-02T03:46:10;5.7;4.9;4.1
53698;PMS7003;68408;53.952;27.612;2023-05-02T03:51:44;5.9;4.8;3.6
53698;PMS7003;68408;53.952;27.612;2023-05-02T03:56:44;5.8;4.8;3.6
53698;PMS7003;68408;53.952;27.612;2023-05-02T04:01:20;5.4;3.7;3.1
53698;PMS7003;68408;53.952;27.612;2023-05-02T04:06:34;5.1;3.7;3.2
53698;PMS7003;68408;53.952;27.612;2023-05-02T04:11:36;5.7;4.4;3.5
53698;PMS7003;68408;53.952;27.612;2023-05-02T04:16:20;5.3;4.4;3.5
53698;PMS7003;68408;53.952;27.612;2023-05-02T04:21:48;4.9;3.6;3
53698;PMS7003;68408;53.952;27.612;2023-05-02T04:26:56;9.1;6.5;4.8
53698;PMS7003;68408;53.952;27.612;2023-05-02T04:31:10;4.8;3.5;2.9
53698;PMS7003;68408;53.952;27.612;2023-05-02T04:36:40;6;4.7;3.8
53698;PMS7003;68408;53.952;27.612;2023-05-02T04:41:26;6.4;5.2;4.2
53698;PMS7003;68408;53.952;27.612;2023-05-02T04:46:44;4.7;3.6;2.9
53698;PMS7003;68408;53.952;27.612;2023-05-02T04:51:38;4.9;3.9;3.1
53698;PMS7003;68408;53.952;27.612;2023-05-02T04:56:30;5.1;3.7;3
53698;PMS7003;68408;53.952;27.612;2023-05-02T05:01:54;3.8;2.9;2.3
53698;PMS7003;68408;53.952;27.612;2023-05-02T05:06:54;4.5;3;2.5
53698;PMS7003;68408;53.952;27.612;2023-05-02T05:11:10;4.4;3.7;3.3
53698;PMS7003;68408;53.952;27.612;2023-05-02T05:16:54;4.3;3.1;2.6
53698;PMS7003;68408;53.952;27.612;2023-05-02T05:21:46;4.5;3.4;2.9
53698;PMS7003;68408;53.952;27.612;2023-05-02T05:26:22;5.2;4.8;4
53698;PMS7003;68408;53.952;27.612;2023-05-02T05:31:44;7.6;6.5;5.2
53698;PMS7003;68408;53.952;27.612;2023-05-02T05:36:54;4.6;3.9;3.2
53698;PMS7003;68408;53.952;27.612;2023-05-02T05:41:36;4.1;3.7;3.1
53698;PMS7003;68408;53.952;27.612;2023-05-02T05:46:44;4.1;3.3;2.7
53698;PMS7003;68408;53.952;27.612;2023-05-02T05:51:54;4.2;3.5;3
53698;PMS7003;68408;53.952;27.612;2023-05-02T05:56:10;4.9;3.6;2.9
53698;PMS7003;68408;53.952;27.612;2023-05-02T06:01:18;3.6;3.3;2.8
53698;PMS7003;68408;53.952;27.612;2023-05-02T06:06:36;3.7;3;2.5
53698;PMS7003;68408;53.952;27.612;2023-05-02T06:11:38;5.3;4.2;3.5
53698;PMS7003;68408;53.952;27.612;2023-05-02T06:16:46;4.8;4.3;3.4
53698;PMS7003;68408;53.952;27.612;2023-05-02T06:21:42;7;5.8;4.5
53698;PMS7003;68408;53.952;27.612;2023-05-02T06:26:54;8.4;7;5.4
53698;PMS7003;68408;53.952;27.612;2023-05-02T06:31:40;6.8;5.5;4.5
53698;PMS7003;68408;53.952;27.612;2023-05-02T06:36:56;5;3.8;3
53698;PMS7003;68408;53.952;27.612;2023-05-02T06:41:28;4.6;4.1;3.4
53698;PMS7003;68408;53.952;27.612;2023-05-02T06:46:18;4.4;3.3;2.9
53698;PMS7003;68408;53.952;27.612;2023-05-02T06:51:30;3.8;3;2.6
53698;PMS7003;68408;53.952;27.612;2023-05-02T06:56:56;3.3;2.6;2.1
53698;PMS7003;68408;53.952;27.612;2023-05-02T07:01:30;3.9;3.3;2.6
53698;PMS7003;68408;53.952;27.612;2023-05-02T07:06:22;4.6;3.3;2.5
53698;PMS7003;68408;53.952;27.612;2023-05-02T07:11:54;3.7;3.1;2.7
53698;PMS7003;68408;53.952;27.612;2023-05-02T07:16:34;3.8;3.2;2.4
53698;PMS7003;68408;53.952;27.612;2023-05-02T07:21:10;3.9;2.8;2.3
53698;PMS7003;68408;53.952;27.612;2023-05-02T07:26:28;3.4;2.6;2.3
53698;PMS7003;68408;53.952;27.612;2023-05-02T07:31:56;3.2;2.7;2.3
53698;PMS7003;68408;53.952;27.612;2023-05-02T07:36:10;3.9;2.4;2.1
53698;PMS7003;68408;53.952;27.612;2023-05-02T07:41:54;4.8;3.1;2.6
53698;PMS7003;68408;53.952;27.612;2023-05-02T07:46:54;3.1;2.5;2.2
53698;PMS7003;68408;53.952;27.612;2023-05-02T07:51:22;3.3;2.8;2.1
53698;PMS7003;68408;53.952;27.612;2023-05-02T07:56:30;3.1;2.5;2.1
53698;PMS7003;68408;53.952;27.612;2023-05-02T08:01:44;3.2;2.7;2
53698;PMS7003;68408;53.952;27.612;2023-05-02T08:06:40;2.8;2.7;2.3
53698;PMS7003;68408;53.952;27.612;2023-05-02T08:11:46;3.9;3.2;2.7
53698;PMS7003;68408;53.952;27.612;2023-05-02T08:16:34;3.3;2.3;2
53698;PMS7003;68408;53.952;27.612;2023-05-02T08:21:54;3.4;2.6;2.1
53698;PMS7003;68408;53.952;27.612;2023-05-02T08:26:40;4.3;3.3;2.6
53698;PMS7003;68408;53.952;27.612;2023-05-02T08:31:10;3.8;3.3;2.8
53698;PMS7003;68408;53.952;27.612;2023-05-02T08:36:28;4.2;2.7;2.2
53698;PMS7003;68408;53.952;27.612;2023-05-02T08:41:54;3.1;2.3;1.8
53698;PMS7003;68408;53.952;27.612;2023-05-02T08:46:22;2.9;2.2;1.9
53698;PMS7003;68408;53.952;27.612;2023-05-02T08:51:44;2.7;1.8;1.6
53698;PMS7003;68408;53.952;27.612;2023-05-02T08:56:38;3;2;1.7
53698;PMS7003;68408;53.952;27.612;2023-05-02T09:01:18;2.4;2;1.7
53698;PMS7003;68408;53.952;27.612;2023-05-02T09:06:40;3.1;2.3;1.9
53698;PMS7003;68408;53.952;27.612;2023-05-02T09:11:24;3.4;2.3;2.1
53698;PMS7003;68408;53.952;27.612;2023-05-02T09:16:23;2.2;2.1;1.8
53698;PMS7003;68408;53.952;27.612;2023-05-02T09:21:58;3.7;2.6;2
53698;PMS7003;68408;53.952;27.612;2023-05-02T09:26:55;3.7;2.8;2.3
53698;PMS7003;68408;53.952;27.612;2023-05-02T09:31:44;3.3;2;1.7
53698;PMS7003;68408;53.952;27.612;2023-05-02T09:36:38;2.8;2.2;1.8
53698;PMS7003;68408;53.952;27.612;2023-05-02T09:41:45;3;2.2;1.8
53698;PMS7003;68408;53.952;27.612;2023-05-02T09:46:45;3.1;2.2;1.8
53698;PMS7003;68408;53.952;27.612;2023-05-02T09:51:19;2.7;2.4;2
53698;PMS7003;68408;53.952;27.612;2023-05-02T09:56:55;3.9;3.3;2.7
53698;PMS7003;68408;53.952;27.612;2023-05-02T10:01:54;3.5;2.9;2.4
53698;PMS7003;68408;53.952;27.612;2023-05-02T10:06:54;3.5;2.7;2
53698;PMS7003;68408;53.952;27.612;2023-05-02T10:11:16;3;2.3;1.9
53698;PMS7003;68408;53.952;27.612;2023-05-02T10:16:54;2.7;1.8;1.4
53698;PMS7003;68408;53.952;27.612;2023-05-02T10:21:46;3.5;2.6;2
53698;PMS7003;68408;53.952;27.612;2023-05-02T10:26:24;3.3;2.3;1.8
53698;PMS7003;68408;53.952;27.612;2023-05-02T10:31:30;2.9;2.1;1.8
53698;PMS7003;68408;53.952;27.612;2023-05-02T10:36:55;1.8;1.4;1
53698;PMS7003;68408;53.952;27.612;2023-05-02T10:41:25;3.7;2.4;1.7
53698;PMS7003;68408;53.952;27.612;2023-05-02T10:46:54;3.1;2.3;1.7
53698;PMS7003;68408;53.952;27.612;2023-05-02T10:51:54;2.9;2.2;1.7
53698;PMS7003;68408;53.952;27.612;2023-05-02T10:56:11;2.6;1.8;1.6
53698;PMS7003;68408;53.952;27.612;2023-05-02T11:01:34;3.8;2.6;2.1
53698;PMS7003;68408;53.952;27.612;2023-05-02T11:07:26;2.8;2;1.7
53698;PMS7003;68408;53.952;27.612;2023-05-02T11:11:39;2.8;2.2;1.8
53698;PMS7003;68408;53.952;27.612;2023-05-02T11:17:16;1.9;1.6;1.3
53698;PMS7003;68408;53.952;27.612;2023-05-02T11:21:27;3.2;2.6;2.1
53698;PMS7003;68408;53.952;27.612;2023-05-02T11:27:05;3.8;2.7;2.2
53698;PMS7003;68408;53.952;27.612;2023-05-02T11:36:29;5.3;3.9;3.2
53698;PMS7003;68408;53.952;27.612;2023-05-02T11:41:43;3;2.2;1.8
53698;PMS7003;68408;53.952;27.612;2023-05-02T11:46:54;3;2.6;2
53698;PMS7003;68408;53.952;27.612;2023-05-02T11:51:22;2.9;2.2;1.9
53698;PMS7003;68408;53.952;27.612;2023-05-02T11:56:38;3.4;2;1.6
53698;PMS7003;68408;53.952;27.612;2023-05-02T12:01:12;2.5;2.2;1.6
53698;PMS7003;68408;53.952;27.612;2023-05-02T12:06:18;2.9;2.3;1.9
53698;PMS7003;68408;53.952;27.612;2023-05-02T12:11:38;2.9;2.1;1.7
53698;PMS7003;68408;53.952;27.612;2023-05-02T12:16:36;3.1;2.5;2
53698;PMS7003;68408;53.952;27.612;2023-05-02T12:21:22;3;2.3;1.9
53698;PMS7003;68408;53.952;27.612;2023-05-02T12:26:46;2.9;2.1;1.8
53698;PMS7003;68408;53.952;27.612;2023-05-02T12:31:54;3.3;2.2;1.9
53698;PMS7003;68408;53.952;27.612;2023-05-02T12:36:11;3;2.4;2
53698;PMS7003;68408;53.952;27.612;2023-05-02T12:41:38;3.2;2.3;1.9
53698;PMS7003;68408;53.952;27.612;2023-05-02T12:47:01;3;2.3;1.9
53698;PMS7003;68408;53.952;27.612;2023-05-02T12:51:38;2.5;2;1.6
53698;PMS7003;68408;53.952;27.612;2023-05-02T12:56:37;4.9;3.3;2.7
53698;PMS7003;68408;53.952;27.612;2023-05-02T13:01:44;3.6;2.7;2.2
53698;PMS7003;68408;53.952;27.612;2023-05-02T13:06:52;3.5;2.5;1.9
53698;PMS7003;68408;53.952;27.612;2023-05-02T13:11:54;3.3;2.7;2
53698;PMS7003;68408;53.952;27.612;2023-05-02T13:16:10;3.7;2.5;2.1
53698;PMS7003;68408;53.952;27.612;2023-05-02T13:21:54;2.9;2;1.4
53698;PMS7003;68408;53.952;27.612;2023-05-02T13:26:52;2.9;2.2;1.8
53698;PMS7003;68408;53.952;27.612;2023-05-02T13:31:10;3;1.5;1.1
53698;PMS7003;68408;53.952;27.612;2023-05-02T13:36:22;4;2.7;2.1
53698;PMS7003;68408;53.952;27.612;2023-05-02T13:41:54;2.9;2.1;1.7
53698;PMS7003;68408;53.952;27.612;2023-05-02T13:46:10;3.3;2.3;1.8
53698;PMS7003;68408;53.952;27.612;2023-05-02T13:51:44;3.9;2.9;2.4
53698;PMS7003;68408;53.952;27.612;2023-05-02T13:56:54;4;3.3;2.6
53698;PMS7003;68408;53.952;27.612;2023-05-02T14:01:10;3.5;2.6;2.3
53698;PMS7003;68408;53.952;27.612;2023-05-02T14:06:30;4.7;3.4;2.7
53698;PMS7003;68408;53.952;27.612;2023-05-02T14:11:10;3.9;3.1;2.5
53698;PMS7003;68408;53.952;27.612;2023-05-02T14:16:26;3.3;2.8;2.4
53698;PMS7003;68408;53.952;27.612;2023-05-02T14:21:44;4.1;2.7;2.2
53698;PMS7003;68408;53.952;27.612;2023-05-02T14:26:36;4.5;4;3
53698;PMS7003;68408;53.952;27.612;2023-05-02T14:31:54;3.4;2.7;2.2
53698;PMS7003;68408;53.952;27.612;2023-05-02T14:36:38;3.5;2.8;2.4
53698;PMS7003;68408;53.952;27.612;2023-05-02T14:41:54;3.9;3;2.5
53698;PMS7003;68408;53.952;27.612;2023-05-02T14:46:10;3.4;2.9;2.4
53698;PMS7003;68408;53.952;27.612;2023-05-02T14:51:28;3.6;2.9;2.5
53698;PMS7003;68408;53.952;27.612;2023-05-02T14:56:11;5.5;4.2;3.4
53698;PMS7003;68408;53.952;27.612;2023-05-02T15:01:54;4;3.2;2.7
53698;PMS7003;68408;53.952;27.612;2023-05-02T15:06:30;3.9;3.5;2.9
53698;PMS7003;68408;53.952;27.612;2023-05-02T15:11:10;4.6;3.5;2.7
53698;PMS7003;68408;53.952;27.612;2023-05-02T15:16:38;4.7;3.2;2.8
53698;PMS7003;68408;53.952;27.612;2023-05-02T15:21:36;4.1;3.6;2.9
53698;PMS7003;68408;53.952;27.612;2023-05-02T15:26:10;4.6;3.4;3
53698;PMS7003;68408;53.952;27.612;2023-05-02T15:31:44;4.3;3.2;2.4
53698;PMS7003;68408;53.952;27.612;2023-05-02T15:36:52;4.7;4;3.3
53698;PMS7003;68408;53.952;27.612;2023-05-02T15:41:10;4.4;3.3;2.7
53698;PMS7003;68408;53.952;27.612;2023-05-02T15:46:54;4.5;3.4;2.9
53698;PMS7003;68408;53.952;27.612;2023-05-02T15:51:54;4.3;3.4;2.8
53698;PMS7003;68408;53.952;27.612;2023-05-02T15:56:10;4.5;3.5;2.8
53698;PMS7003;68408;53.952;27.612;2023-05-02T16:01:30;4;3.6;2.9
53698;PMS7003;68408;53.952;27.612;2023-05-02T16:06:44;4.2;3.4;3
53698;PMS7003;68408;53.952;27.612;2023-05-02T16:11:38;3.7;3.4;3
53698;PMS7003;68408;53.952;27.612;2023-05-02T16:16:46;4.2;3.2;2.2
53698;PMS7003;68408;53.952;27.612;2023-05-02T16:21:24;4.1;3;2.6
53698;PMS7003;68408;53.952;27.612;2023-05-02T16:26:52;3.8;2.9;2.4
53698;PMS7003;68408;53.952;27.612;2023-05-02T16:31:38;4.1;3.1;2.3
53698;PMS7003;68408;53.952;27.612;2023-05-02T16:36:34;5.9;3.1;2.1
53698;PMS7003;68408;53.952;27.612;2023-05-02T16:41:28;5.7;4.8;4
53698;PMS7003;68408;53.952;27.612;2023-05-02T16:46:52;6.2;5;4
53698;PMS7003;68408;53.952;27.612;2023-05-02T16:51:10;5.4;5;4.1
53698;PMS7003;68408;53.952;27.612;2023-05-02T16:56:44;7;6;5.1
53698;PMS7003;68408;53.952;27.612;2023-05-02T17:01:36;7.7;6.6;5.6
53698;PMS7003;68408;53.952;27.612;2023-05-02T17:06:22;7.8;6.7;5.4
53698;PMS7003;68408;53.952;27.612;2023-05-02T17:11:38;6.8;6;4.8
53698;PMS7003;68408;53.952;27.612;2023-05-02T17:16:34;6.4;5.5;4.5
53698;PMS7003;68408;53.952;27.612;2023-05-02T17:21:16;7.1;6.3;5.7
53698;PMS7003;68408;53.952;27.612;2023-05-02T17:26:54;7.3;6.7;5.5
53698;PMS7003;68408;53.952;27.612;2023-05-02T17:31:54;7.9;7.1;5.9
53698;PMS7003;68408;53.952;27.612;2023-05-02T17:36:46;7.7;6.9;5.9
53698;PMS7003;68408;53.952;27.612;2023-05-02T17:41:38;7.5;6.3;5.4
53698;PMS7003;68408;53.952;27.612;2023-05-02T17:46:44;7.4;6.6;5.5
53698;PMS7003;68408;53.952;27.612;2023-05-02T17:51:42;7;6.4;5.4
53698;PMS7003;68408;53.952;27.612;2023-05-02T17:56:18;8.8;7.6;6.5
53698;PMS7003;68408;53.952;27.612;2023-05-02T18:01:42;8.3;7.7;6.3
53698;PMS7003;68408;53.952;27.612;2023-05-02T18:06:54;9.9;8.7;6.8
53698;PMS7003;68408;53.952;27.612;2023-05-02T18:11:52;9.1;7.2;5.7
53698;PMS7003;68408;53.952;27.612;2023-05-02T18:16:22;9.3;8.1;6.9
53698;PMS7003;68408;53.952;27.612;2023-05-02T18:21:54;10.1;8.6;7.2
53698;PMS7003;68408;53.952;27.612;2023-05-02T18:26:12;9.7;8.4;6.8
53698;PMS7003;68408;53.952;27.612;2023-05-02T18:31:14;9.8;9.1;7.3
53698;PMS7003;68408;53.952;27.612;2023-05-02T18:36:23;18.3;15.1;11.2
53698;PMS7003;68408;53.952;27.612;2023-05-02T18:41:56;14.1;12.1;9.6
53698;PMS7003;68408;53.952;27.612;2023-05-02T18:46:20;10.8;9.1;7.5
53698;PMS7003;68408;53.952;27.612;2023-05-02T18:51:48;9.5;8.3;7.1
53698;PMS7003;68408;53.952;27.612;2023-05-02T18:56:56;9.1;8.3;7.1
53698;PMS7003;68408;53.952;27.612;2023-05-02T19:01:11;10.4;8.8;7.8
53698;PMS7003;68408;53.952;27.612;2023-05-02T19:06:22;10.8;8.5;6.8
53698;PMS7003;68408;53.952;27.612;2023-05-02T19:11:13;11.2;9.8;8.2
53698;PMS7003;68408;53.952;27.612;2023-05-02T19:16:38;12.1;10.1;8.2
53698;PMS7003;68408;53.952;27.612;2023-05-02T19:21:44;12.6;9.6;8
53698;PMS7003;68408;53.952;27.612;2023-05-02T19:26:34;13.1;11.4;8.9
53698;PMS7003;68408;53.952;27.612;2023-05-02T19:31:52;10.7;10.1;8.2
53698;PMS7003;68408;53.952;27.612;2023-05-02T19:36:38;12.9;11.2;9.3
53698;PMS7003;68408;53.952;27.612;2023-05-02T19:41:10;12.2;10.7;8.7
53698;PMS7003;68408;53.952;27.612;2023-05-02T19:46:10;12.2;10.3;8.4
53698;PMS7003;68408;53.952;27.612;2023-05-02T19:51:54;11.5;9.7;8.1
53698;PMS7003;68408;53.952;27.612;2023-05-02T19:56:18;10.8;9.5;7.8
53698;PMS7003;68408;53.952;27.612;2023-05-02T20:01:44;13.3;10.9;8.7
53698;PMS7003;68408;53.952;27.612;2023-05-02T20:06:44;12.1;10.8;8.9
53698;PMS7003;68408;53.952;27.612;2023-05-02T20:11:10;16.5;14.7;11.8
53698;PMS7003;68408;53.952;27.612;2023-05-02T20:16:38;15;13.2;10.7
53698;PMS7003;68408;53.952;27.612;2023-05-02T20:21:24;15.9;13.3;10.4
53698;PMS7003;68408;53.952;27.612;2023-05-02T20:26:28;14.3;12.8;10.2
53698;PMS7003;68408;53.952;27.612;2023-05-02T20:36:54;15.4;13;10.4
53698;PMS7003;68408;53.952;27.612;2023-05-02T20:41:10;15.7;13.7;11.1
53698;PMS7003;68408;53.952;27.612;2023-05-02T20:46:38;16.6;15;11.5
53698;PMS7003;68408;53.952;27.612;2023-05-02T20:51:46;16.5;14.7;11.3
53698;PMS7003;68408;53.952;27.612;2023-05-02T20:56:44;17.6;15.5;12.3
53698;PMS7003;68408;53.952;27.612;2023-05-02T21:01:18;16.5;14.6;11.3
53698;PMS7003;68408;53.952;27.612;2023-05-02T21:06:45;17.3;15.3;12.3
53698;PMS7003;68408;53.952;27.612;2023-05-02T21:11:54;17.7;14.9;12.1
53698;PMS7003;68408;53.952;27.612;2023-05-02T21:16:52;16.9;14.7;11.1
53698;PMS7003;68408;53.952;27.612;2023-05-02T21:21:22;16.9;14.7;12
53698;PMS7003;68408;53.952;27.612;2023-05-02T21:26:54;17.3;14.7;11.6
53698;PMS7003;68408;53.952;27.612;2023-05-02T21:46:54;17.6;15.4;12.2
53698;PMS7003;68408;53.952;27.612;2023-05-02T21:51:10;19.6;16.4;12
53698;PMS7003;68408;53.952;27.612;2023-05-02T21:56:42;19;16.2;12.8
53698;PMS7003;68408;53.952;27.612;2023-05-02T22:01:53;18.4;16.3;12.4
53698;PMS7003;68408;53.952;27.612;2023-05-02T22:06:10;18.2;15.4;11.8
53698;PMS7003;68408;53.952;27.612;2023-05-02T22:11:30;19.6;16.9;13.3
53698;PMS7003;68408;53.952;27.612;2023-05-02T22:16:36;20.2;17.3;13.4
53698;PMS7003;68408;53.952;27.612;2023-05-02T22:21:26;17.4;15.2;11.9
53698;PMS7003;68408;53.952;27.612;2023-05-02T22:26:34;18.6;17;13.5
53698;PMS7003;68408;53.952;27.612;2023-05-02T22:31:36;19.7;17.2;13.2
53698;PMS7003;68408;53.952;27.612;2023-05-02T22:36:28;20.7;16.5;12.7
53698;PMS7003;68408;53.952;27.612;2023-05-02T22:41:54;20.5;17.2;13.4
53698;PMS7003;68408;53.952;27.612;2023-05-02T22:46:54;18.9;16.1;12.4
53698;PMS7003;68408;53.952;27.612;2023-05-02T22:51:23;20;18.1;14
53698;PMS7003;68408;53.952;27.612;2023-05-02T22:56:20;20.9;18.4;14
53698;PMS7003;68408;53.952;27.612;2023-05-02T23:01:10;18.9;16.2;13.2
53698;PMS7003;68408;53.952;27.612;2023-05-02T23:06:54;20.3;17.7;13.5
53698;PMS7003;68408;53.952;27.612;2023-05-02T23:11:44;20.7;19.4;14.7
53698;PMS7003;68408;53.952;27.612;2023-05-02T23:16:23;22.2;19.1;14.8
53698;PMS7003;68408;53.952;27.612;2023-05-02T23:21:55;20.1;16.8;13.7
53698;PMS7003;68408;53.952;27.612;2023-05-02T23:26:36;22.1;19.5;14.7
53698;PMS7003;68408;53.952;27.612;2023-05-02T23:31:22;18.7;15.6;11.1
53698;PMS7003;68408;53.952;27.612;2023-05-02T23:36:38;19.7;17.8;14
53698;PMS7003;68408;53.952;27.612;2023-05-02T23:41:54;20.1;17.3;13.7
53698;PMS7003;68408;53.952;27.612;2023-05-02T23:46:24;19.2;16.3;12.3
53698;PMS7003;68408;53.952;27.612;2023-05-02T23:51:55;20.7;18.1;13.7
53698;PMS7003;68408;53.952;27.612;2023-05-02T23:56:45;20.2;17.6;13.2
